Time;durP1;ratioP1;P1;durP2;ratioP2;P2;SDS_P1;SDS_P2;PMS_P1;PMS_P2;Temp;Humidity;BMP_temperature;BMP_pressure;BME280_temperature;BME280_humidity;BME280_pressure;Samples;Min_cycle;Max_cycle;Signal;HPM_P1;HPM_P2
2022/09/20 00:02:17;;;;;;;2.72;0.82;;;;;;;12.16;66.46;98502.25;5073512;28;20029;-61
2022/09/20 00:04:42;;;;;;;1.02;0.80;;;;;;;12.19;66.33;98489.34;5074978;28;20040;-60
2022/09/20 00:07:08;;;;;;;1.42;0.82;;;;;;;12.25;66.25;98492.34;5074310;28;20447;-61
2022/09/20 00:09:33;;;;;;;1.40;0.90;;;;;;;12.27;66.02;98498.38;5074957;28;20028;-61
2022/09/20 00:11:59;;;;;;;2.10;0.75;;;;;;;12.20;66.45;98512.47;5074894;28;20115;-60
2022/09/20 00:14:24;;;;;;;2.20;0.88;;;;;;;12.13;66.55;98505.25;5075293;28;20033;-61
2022/09/20 00:16:50;;;;;;;1.58;0.68;;;;;;;12.12;66.30;98509.81;5075160;28;20472;-62
2022/09/20 00:19:20;;;;;;;1.38;0.70;;;;;;;12.13;66.55;98527.56;5075301;28;20093;-61
2022/09/20 00:21:46;;;;;;;2.05;0.70;;;;;;;12.12;66.74;98531.28;5075109;28;20032;-61
2022/09/20 00:24:12;;;;;;;1.13;0.70;;;;;;;12.15;66.61;98541.66;5074597;28;20028;-61
2022/09/20 00:26:39;;;;;;;3.40;0.80;;;;;;;12.15;66.66;98536.31;5075132;28;20021;-61
2022/09/20 00:29:05;;;;;;;1.80;0.80;;;;;;;12.17;66.32;98531.59;5074246;28;20032;-61
2022/09/20 00:31:30;;;;;;;1.95;0.70;;;;;;;12.22;66.33;98532.94;5074864;28;20042;-60
2022/09/20 00:36:41;;;;;;;0.93;0.63;;;;;;;12.27;66.40;98542.19;5074624;28;20040;-61
2022/09/20 00:39:11;;;;;;;1.08;0.90;;;;;;;12.28;66.31;98553.75;5074735;28;20032;-61
2022/09/20 00:41:36;;;;;;;3.00;0.90;;;;;;;12.28;66.14;98561.78;5073970;28;20044;-61
2022/09/20 00:44:22;;;;;;;1.15;1.00;;;;;;;12.29;66.26;98568.84;5074496;28;20051;-62
2022/09/20 00:46:47;;;;;;;0.88;0.80;;;;;;;12.36;65.82;98561.81;5073424;28;20075;-62
2022/09/20 00:49:16;;;;;;;1.00;0.80;;;;;;;12.34;66.24;98571.88;5074497;28;20056;-62
2022/09/20 00:51:47;;;;;;;1.27;0.80;;;;;;;12.41;66.23;98580.09;5074676;28;20098;-61
2022/09/20 00:54:15;;;;;;;0.88;0.80;;;;;;;12.38;66.34;98573.22;5074272;28;20028;-60
2022/09/20 00:56:43;;;;;;;2.55;0.90;;;;;;;12.32;66.55;98569.34;5073978;28;20064;-62
2022/09/20 00:59:29;;;;;;;2.13;0.88;;;;;;;12.36;66.58;98585.97;5073937;28;20369;-61
2022/09/20 01:02:17;;;;;;;;;;;;;;;12.58;65.54;98583.63;5075287;28;20150;-60
2022/09/20 01:04:43;;;;;;;1.27;0.88;;;;;;;12.34;65.60;98587.97;5068591;28;19920;-61
2022/09/20 01:07:13;;;;;;;0.88;0.80;;;;;;;12.24;66.42;98593.50;5073634;28;20064;-61
2022/09/20 01:09:39;;;;;;;1.20;0.95;;;;;;;12.13;66.56;98591.13;5073991;28;20033;-61
2022/09/20 01:12:11;;;;;;;1.33;0.70;;;;;;;12.15;66.88;98599.84;5074202;28;20029;-61
2022/09/20 01:14:37;;;;;;;2.05;1.02;;;;;;;12.11;66.95;98599.34;5073933;28;20028;-60
2022/09/20 01:17:05;;;;;;;1.55;1.00;;;;;;;12.15;67.14;98610.56;5073810;28;20033;-60
2022/09/20 01:19:42;;;;;;;1.58;0.93;;;;;;;12.20;66.75;98614.44;5073563;28;20032;-60
2022/09/20 01:22:54;;;;;;;1.92;0.85;;;;;;;12.26;66.80;98606.75;5074085;28;20043;-61
2022/09/20 01:25:58;;;;;;;1.35;0.80;;;;;;;12.40;66.38;98611.47;5050026;28;20170;-61
2022/09/20 01:28:25;;;;;;;1.35;0.80;;;;;;;12.27;66.11;98613.78;5073755;28;20120;-62
2022/09/20 01:31:21;;;;;;;1.48;0.90;;;;;;;12.32;66.54;98627.56;5073561;28;20043;-61
2022/09/20 01:33:56;;;;;;;1.17;0.80;;;;;;;12.28;66.37;98628.88;5073681;28;20024;-61
2022/09/20 01:36:59;;;;;;;0.90;0.80;;;;;;;12.31;66.53;98631.25;5073750;28;20093;-62
2022/09/20 01:39:42;;;;;;;1.05;0.70;;;;;;;12.27;66.37;98633.44;5053688;28;20048;-60
2022/09/20 01:42:11;;;;;;;2.78;1.02;;;;;;;12.18;66.51;98642.47;5053651;28;20025;-61
2022/09/20 01:45:00;;;;;;;1.25;0.80;;;;;;;12.19;66.96;98636.91;5064537;28;20481;-62
2022/09/20 01:47:57;;;;;;;3.80;0.68;;;;;;;12.23;67.02;98644.63;5073403;28;20123;-62
2022/09/20 01:50:42;;;;;;;1.92;0.60;;;;;;;12.20;66.92;98637.78;5072788;28;20493;-61
2022/09/20 01:53:26;;;;;;;2.42;0.80;;;;;;;12.22;66.77;98643.81;5073205;28;20139;-62
2022/09/20 01:56:10;;;;;;;1.65;0.82;;;;;;;12.12;67.05;98637.72;5072769;28;20066;-62
2022/09/20 01:59:00;;;;;;;1.00;0.73;;;;;;;12.16;66.79;98649.81;5072716;28;20028;-61
2022/09/20 02:01:44;;;;;;;1.08;0.60;;;;;;;12.24;66.61;98657.06;5073304;28;20036;-61
2022/09/20 02:04:31;;;;;;;2.13;0.70;;;;;;;12.13;66.99;98645.63;5072688;28;20036;-61
2022/09/20 02:07:18;;;;;;;0.70;0.70;;;;;;;12.11;66.78;98657.50;5073443;28;20032;-61
2022/09/20 02:09:50;;;;;;;2.15;1.00;;;;;;;12.06;67.27;98656.16;5070750;28;20107;-60
2022/09/20 02:12:37;;;;;;;1.45;0.90;;;;;;;12.14;67.57;98666.09;5072688;28;20462;-61
2022/09/20 02:15:22;;;;;;;1.65;0.80;;;;;;;12.05;67.06;98659.00;5072413;28;20082;-60
2022/09/20 02:18:00;;;;;;;0.80;0.80;;;;;;;12.06;67.22;98655.34;5072800;28;20074;-60
2022/09/20 02:20:31;;;;;;;2.33;0.90;;;;;;;12.05;67.33;98667.91;5072245;28;20033;-61
2022/09/20 02:23:29;;;;;;;3.40;0.98;;;;;;;12.11;67.70;98693.25;5072608;28;20040;-62
2022/09/20 02:26:00;;;;;;;1.33;0.60;;;;;;;12.05;67.52;98680.47;5064099;28;20046;-62
2022/09/20 02:28:48;;;;;;;1.13;0.82;;;;;;;12.19;67.28;98690.59;5052625;28;20434;-61
2022/09/20 02:31:26;;;;;;;2.53;0.90;;;;;;;12.22;67.21;98693.94;5049729;28;20040;-61
2022/09/20 02:33:57;;;;;;;1.67;0.80;;;;;;;12.25;66.88;98701.66;5071987;28;20044;-61
2022/09/20 02:36:22;;;;;;;1.00;0.80;;;;;;;12.24;66.56;98710.72;5071673;28;20032;-61
2022/09/20 02:39:30;;;;;;;1.80;0.80;;;;;;;12.32;66.44;98705.41;5072873;28;20059;-61
2022/09/20 02:42:17;;;;;;;1.85;0.80;;;;;;;12.30;66.43;98715.47;5050510;28;20491;-62
2022/09/20 02:45:05;;;;;;;2.25;0.80;;;;;;;12.35;66.46;98715.81;5070946;28;20105;-61
2022/09/20 02:47:42;;;;;;;2.30;0.80;;;;;;;12.09;65.86;98672.94;5072561;28;20518;-62
2022/09/20 02:50:19;;;;;;;2.70;0.80;;;;;;;12.31;66.01;98717.16;5072491;28;20040;-61
2022/09/20 02:52:53;;;;;;;1.13;1.02;;;;;;;12.32;65.99;98734.94;5071903;28;20036;-61
2022/09/20 02:55:37;;;;;;;5.60;0.90;;;;;;;12.25;66.23;98740.09;5071858;28;20056;-62
2022/09/20 02:58:29;;;;;;;1.23;0.90;;;;;;;12.36;65.95;98752.38;5072469;28;20461;-62
2022/09/20 03:01:28;;;;;;;2.35;1.00;;;;;;;12.25;66.05;98729.34;5059807;28;20044;-62
2022/09/20 03:04:28;;;;;;;0.90;0.75;;;;;;;12.45;65.78;98750.56;5072284;28;20120;-62
2022/09/20 03:07:17;;;;;;;1.27;0.70;;;;;;;12.44;65.43;98760.47;5052437;28;20052;-62
2022/09/20 03:10:11;;;;;;;1.80;0.80;;;;;;;12.47;65.74;98770.03;5052014;28;20127;-61
2022/09/20 03:13:14;;;;;;;2.20;0.95;;;;;;;12.42;65.92;98778.56;5050980;28;20041;-61
2022/09/20 03:16:01;;;;;;;1.17;0.80;;;;;;;12.39;65.87;98789.63;5052336;28;20040;-60
2022/09/20 03:18:41;;;;;;;2.10;0.95;;;;;;;12.41;65.91;98794.81;5067877;28;20125;-61
2022/09/20 03:21:32;;;;;;;1.60;0.90;;;;;;;12.37;65.92;98782.72;5071052;28;20461;-60
2022/09/20 03:24:24;;;;;;;3.42;1.20;;;;;;;12.45;65.74;98801.56;5071551;28;20481;-61
2022/09/20 03:27:17;;;;;;;2.45;0.90;;;;;;;12.40;65.32;98804.72;5072392;28;20040;-63
2022/09/20 03:30:34;;;;;;;3.38;1.00;;;;;;;12.44;65.62;98813.31;5071607;28;20028;-62
2022/09/20 03:33:09;;;;;;;1.40;0.97;;;;;;;12.42;65.75;98816.16;5059723;28;20049;-62
2022/09/20 03:36:08;;;;;;;1.63;0.73;;;;;;;12.46;65.59;98825.56;5071943;28;20271;-61
2022/09/20 03:39:06;;;;;;;0.90;0.77;;;;;;;12.46;65.08;98830.09;5072194;28;20040;-63
2022/09/20 03:41:34;;;;;;;1.00;0.90;;;;;;;12.38;65.43;98828.22;5071762;28;20033;-61
2022/09/20 03:44:15;;;;;;;1.33;0.80;;;;;;;12.30;65.53;98829.00;5071258;28;20032;-63
2022/09/20 03:46:45;;;;;;;1.10;1.00;;;;;;;12.36;65.45;98857.06;5071532;28;20041;-62
2022/09/20 03:49:42;;;;;;;2.28;0.98;;;;;;;12.41;65.52;98841.31;5071333;28;20048;-60
2022/09/20 03:52:28;;;;;;;1.40;1.00;;;;;;;12.42;65.83;98842.13;5071864;28;20037;-61
2022/09/20 03:55:15;;;;;;;1.08;0.82;;;;;;;12.31;65.71;98844.13;5071224;28;20045;-60
2022/09/20 03:58:05;;;;;;;1.20;1.00;;;;;;;12.41;65.91;98844.00;5071583;28;20036;-60
2022/09/20 04:00:55;;;;;;;3.60;1.00;;;;;;;12.37;65.91;98844.47;5071774;28;20047;-62
2022/09/20 04:03:40;;;;;;;2.17;0.80;;;;;;;12.36;66.07;98867.78;5070378;28;20039;-61
2022/09/20 04:06:16;;;;;;;1.10;0.90;;;;;;;12.34;66.03;98867.94;5071580;28;20439;-61
2022/09/20 04:09:20;;;;;;;1.58;1.10;;;;;;;12.40;66.04;98879.91;5073237;28;20035;-62
2022/09/20 04:12:04;;;;;;;1.77;1.23;;;;;;;12.46;65.66;98879.25;5074704;28;20055;-62
2022/09/20 04:14:46;;;;;;;1.33;1.17;;;;;;;12.42;65.91;98887.78;5074324;28;20070;-62
2022/09/20 04:17:29;;;;;;;1.40;1.00;;;;;;;12.44;65.78;98886.63;5075219;28;20115;-61
2022/09/20 04:20:22;;;;;;;3.88;1.30;;;;;;;12.45;65.70;98891.00;5074638;28;20455;-62
2022/09/20 04:22:53;;;;;;;2.63;1.30;;;;;;;12.40;65.68;98887.94;5074434;28;20040;-62
2022/09/20 04:25:28;;;;;;;0.98;0.88;;;;;;;12.49;65.66;98895.03;5075548;28;20039;-63
2022/09/20 04:27:58;;;;;;;;;;;;;;;12.86;64.88;98900.25;5074822;28;20035;-65
2022/09/20 04:30:29;;;;;;;2.65;1.20;;;;;;;12.72;64.83;98905.22;5074576;28;19920;-64
2022/09/20 04:33:02;;;;;;;3.38;1.27;;;;;;;12.73;64.92;98903.41;5075098;28;20035;-61
2022/09/20 04:38:31;;;;;;;3.42;1.30;;;;;;;12.68;64.67;98921.84;5073438;28;20196;-61
2022/09/20 04:41:34;;;;;;;1.08;0.93;;;;;;;12.82;65.26;98925.75;5074364;28;20107;-61
2022/09/20 04:44:11;;;;;;;1.52;1.05;;;;;;;12.91;64.78;98932.84;5074659;28;20152;-56
2022/09/20 04:47:05;;;;;;;1.48;1.10;;;;;;;12.92;64.35;98939.91;5074114;28;20032;-57
2022/09/20 04:49:32;;;;;;;2.60;1.40;;;;;;;12.83;64.50;98935.50;5073902;28;20370;-60
2022/09/20 04:52:15;;;;;;;1.20;1.10;;;;;;;12.86;64.93;98948.63;5074418;28;20043;-56
2022/09/20 04:55:18;;;;;;;1.75;1.30;;;;;;;12.87;64.86;98944.94;5074368;28;20210;-62
2022/09/20 04:58:13;;;;;;;1.40;1.10;;;;;;;12.87;64.91;98958.34;5073766;28;20430;-57
2022/09/20 05:01:18;;;;;;;2.75;1.33;;;;;;;12.86;65.00;98965.56;5074335;28;20170;-59
2022/09/20 05:04:05;;;;;;;2.08;1.42;;;;;;;12.88;65.11;98965.41;5065461;28;20098;-61
2022/09/20 05:06:57;;;;;;;2.80;1.50;;;;;;;12.92;64.88;98970.31;5073407;28;20143;-60
2022/09/20 05:09:26;;;;;;;2.08;1.20;;;;;;;13.03;64.22;98971.88;5073009;28;20377;-60
2022/09/20 05:12:14;;;;;;;2.78;1.45;;;;;;;13.10;64.14;98972.06;5074059;28;20036;-55
2022/09/20 05:15:01;;;;;;;1.90;1.17;;;;;;;13.35;63.59;98977.53;5073662;28;20478;-56
2022/09/20 05:17:38;;;;;;;2.95;1.40;;;;;;;13.56;63.05;98974.44;5073206;28;20029;-58
2022/09/20 05:20:37;;;;;;;1.75;1.30;;;;;;;15.07;59.40;98982.28;5072316;28;20032;-59
2022/09/20 05:23:21;;;;;;;3.20;1.65;;;;;;;16.86;54.02;98976.00;5073730;28;20028;-55
2022/09/20 05:25:53;;;;;;;1.50;1.20;;;;;;;17.73;50.71;98975.44;5072621;28;20033;-54
2022/09/20 05:28:52;;;;;;;3.80;1.40;;;;;;;18.87;48.68;98990.00;5072792;28;20036;-61
2022/09/20 05:31:32;;;;;;;1.50;1.40;;;;;;;19.60;46.33;98993.31;5073095;28;20044;-59
2022/09/20 05:34:19;;;;;;;2.08;1.45;;;;;;;20.52;45.00;98990.16;5072827;28;20493;-55
2022/09/20 05:37:37;;;;;;;3.80;1.38;;;;;;;20.33;44.48;99000.81;5072776;28;20036;-59
2022/09/20 05:40:30;;;;;;;2.85;1.52;;;;;;;19.26;46.68;99012.16;5017345;28;20091;-58
2022/09/20 05:43:10;;;;;;;1.42;1.20;;;;;;;18.17;48.53;99014.25;5072386;28;20032;-58
2022/09/20 05:45:56;;;;;;;2.63;1.17;;;;;;;17.25;50.73;99009.22;5052745;28;20040;-57
2022/09/20 05:48:44;;;;;;;1.40;1.25;;;;;;;16.54;53.18;99015.84;5052653;28;20132;-57
2022/09/20 05:51:34;;;;;;;2.92;1.48;;;;;;;16.06;54.50;99021.44;5070969;28;20093;-58
2022/09/20 05:54:24;;;;;;;6.97;1.30;;;;;;;15.77;55.39;99025.66;5072251;28;20036;-57
2022/09/20 05:57:27;;;;;;;4.55;1.38;;;;;;;15.49;55.81;99031.53;5073051;28;20031;-56
2022/09/20 06:00:13;;;;;;;4.18;1.40;;;;;;;15.23;56.39;99029.94;5072301;28;20050;-57
2022/09/20 06:03:03;;;;;;;4.68;1.77;;;;;;;14.97;56.92;99036.41;5072339;28;20032;-58
2022/09/20 06:05:28;;;;;;;2.42;1.55;;;;;;;14.74;57.29;99038.97;5072410;28;20111;-56
2022/09/20 06:08:12;;;;;;;8.05;4.80;;;;;;;14.64;57.89;99037.28;5072655;28;20464;-56
2022/09/20 06:10:42;;;;;;;2.67;1.40;;;;;;;14.75;57.30;99054.13;5072515;28;20033;-56
2022/09/20 06:13:26;;;;;;;3.00;1.42;;;;;;;14.80;57.33;99056.31;5072639;28;20064;-61
2022/09/20 06:16:00;;;;;;;3.80;1.38;;;;;;;14.69;57.47;99058.31;5071996;28;20422;-58
2022/09/20 06:18:44;;;;;;;2.03;1.23;;;;;;;14.65;57.16;99059.66;5072308;28;20029;-59
2022/09/20 06:21:21;;;;;;;2.28;1.48;;;;;;;14.59;57.56;99046.88;5072688;28;20032;-57
2022/09/20 06:23:46;;;;;;;2.60;1.30;;;;;;;14.54;56.88;99062.69;5071702;28;20033;-62
2022/09/20 06:26:16;;;;;;;2.65;1.33;;;;;;;15.46;55.38;99067.78;5072028;28;20112;-58
2022/09/20 06:28:47;;;;;;;1.83;1.08;;;;;;;16.10;52.95;99076.75;5071808;28;20438;-58
2022/09/20 06:31:12;;;;;;;5.45;1.42;;;;;;;16.16;52.23;99076.06;5071843;28;20025;-56
2022/09/20 06:33:49;;;;;;;2.55;1.02;;;;;;;16.17;52.48;99058.84;5071990;28;20028;-57
2022/09/20 06:42:29;;;;;;;3.40;1.45;;;;;;;18.59;46.06;99076.78;5071635;28;20024;-55
2022/09/20 06:44:55;;;;;;;2.03;1.25;;;;;;;17.97;47.00;99084.44;5071831;28;20036;-57
2022/09/20 06:47:22;;;;;;;5.25;1.23;;;;;;;17.71;47.85;99089.31;5072524;28;20116;-59
2022/09/20 06:49:49;;;;;;;2.80;1.40;;;;;;;17.45;48.09;99093.34;5072445;28;20051;-61
2022/09/20 06:52:21;;;;;;;3.22;1.20;;;;;;;17.50;47.94;99095.50;5072169;28;20049;-56
2022/09/20 06:54:50;;;;;;;4.22;1.38;;;;;;;18.19;45.60;99107.00;5072203;28;20435;-59
2022/09/20 06:57:20;;;;;;;5.18;1.30;;;;;;;20.30;41.29;99101.81;5072769;28;20425;-58
2022/09/20 06:59:46;;;;;;;4.07;1.35;;;;;;;21.51;38.72;99098.28;5073067;28;20043;-56
2022/09/20 07:02:11;;;;;;;2.55;1.20;;;;;;;23.84;34.05;99100.63;5071508;28;20108;-57
2022/09/20 07:04:37;;;;;;;3.67;1.35;;;;;;;26.69;29.69;99098.19;5071444;28;20079;-57
2022/09/20 07:07:05;;;;;;;3.50;1.55;;;;;;;27.35;28.37;99103.94;5072469;28;20362;-59
2022/09/20 07:09:30;;;;;;;1.80;1.10;;;;;;;25.77;29.70;99107.97;5072183;28;20060;-57
2022/09/20 07:11:58;;;;;;;2.50;1.25;;;;;;;24.02;32.06;99105.28;5071474;28;20067;-57
2022/09/20 07:14:27;;;;;;;1.15;0.95;;;;;;;22.39;35.22;99117.84;5071750;28;20029;-62
2022/09/20 07:16:53;;;;;;;4.07;1.20;;;;;;;21.15;37.57;99110.47;5071891;28;20048;-60
2022/09/20 07:19:19;;;;;;;1.58;0.93;;;;;;;20.14;39.59;99122.03;5072798;28;20052;-61
2022/09/20 07:21:44;;;;;;;2.28;0.90;;;;;;;19.61;40.67;99118.03;5071856;28;20146;-59
2022/09/20 07:24:10;;;;;;;5.03;0.95;;;;;;;19.23;41.35;99115.69;5070648;28;20033;-57
2022/09/20 07:26:37;;;;;;;2.78;1.20;;;;;;;18.77;42.71;99122.41;5072294;28;20032;-57
2022/09/20 07:29:05;;;;;;;2.78;1.30;;;;;;;18.34;43.28;99121.34;5071741;28;20028;-59
2022/09/20 07:31:31;;;;;;;3.50;1.17;;;;;;;18.02;44.27;99119.94;5071491;28;20115;-58
2022/09/20 07:33:56;;;;;;;5.00;1.20;;;;;;;17.78;45.06;99133.59;5071558;28;20059;-58
2022/09/20 07:36:22;;;;;;;5.68;1.77;;;;;;;17.50;45.58;99133.41;5071472;28;20025;-57
2022/09/20 07:38:49;;;;;;;2.75;1.30;;;;;;;17.33;46.36;99144.38;5071722;28;20036;-55
2022/09/20 07:41:17;;;;;;;6.22;1.75;;;;;;;17.22;46.96;99152.97;5070692;28;20111;-57
2022/09/20 07:43:44;;;;;;;2.83;1.35;;;;;;;17.24;46.66;99125.72;5075183;28;20032;-55
2022/09/20 07:46:12;;;;;;;4.53;1.48;;;;;;;17.20;46.84;99145.00;5075344;28;20028;-59
2022/09/20 07:48:38;;;;;;;2.67;1.30;;;;;;;17.33;46.67;99149.78;5074944;28;20036;-59
2022/09/20 07:51:06;;;;;;;3.55;1.50;;;;;;;17.41;46.45;99146.16;5074859;28;20048;-58
2022/09/20 07:53:32;;;;;;;3.60;1.10;;;;;;;17.22;46.62;99158.38;5075134;28;20063;-59
2022/09/20 07:56:01;;;;;;;4.80;1.40;;;;;;;17.12;47.56;99157.78;5074804;28;20121;-57
2022/09/20 07:58:28;;;;;;;3.05;1.80;;;;;;;17.01;47.26;99140.16;5074120;28;20047;-58
2022/09/20 08:00:56;;;;;;;2.53;1.13;;;;;;;17.10;46.87;99143.59;5075136;28;20047;-60
2022/09/20 08:03:22;;;;;;;3.83;1.27;;;;;;;17.40;46.48;99159.91;5075189;28;20109;-61
2022/09/20 08:05:48;;;;;;;4.78;1.27;;;;;;;17.52;46.07;99165.69;5075435;28;20462;-58
2022/09/20 08:08:16;;;;;;;3.92;1.40;;;;;;;17.78;45.26;99157.09;5075272;28;20123;-59
2022/09/20 08:10:43;;;;;;;2.67;1.13;;;;;;;18.26;44.69;99161.28;5074750;28;20036;-59
2022/09/20 08:13:09;;;;;;;3.20;1.33;;;;;;;18.62;43.80;99165.84;5074966;28;20081;-60
2022/09/20 08:15:35;;;;;;;3.95;1.75;;;;;;;19.08;42.96;99165.47;5075233;28;20024;-60
2022/09/20 08:18:00;;;;;;;3.78;1.15;;;;;;;19.49;41.97;99166.63;5075036;28;20106;-58
2022/09/20 08:20:26;;;;;;;1.83;1.42;;;;;;;19.57;41.39;99171.06;5074808;28;20347;-58
2022/09/20 08:22:54;;;;;;;1.88;1.55;;;;;;;19.22;42.07;99141.16;5075309;28;20029;-58
2022/09/20 08:25:20;;;;;;;2.15;1.30;;;;;;;18.97;42.96;99159.72;5075476;28;20032;-58
2022/09/20 08:27:52;;;;;;;3.92;1.00;;;;;;;18.73;43.95;99176.16;5074337;28;20024;-61
2022/09/20 08:30:17;;;;;;;4.10;1.40;;;;;;;18.57;43.81;99177.25;5074533;28;20028;-56
2022/09/20 08:32:42;;;;;;;3.00;1.40;;;;;;;18.88;43.60;99178.00;5074855;28;20024;-58
2022/09/20 08:35:09;;;;;;;4.30;1.92;;;;;;;19.07;42.75;99166.50;5074845;28;20056;-58
2022/09/20 08:37:34;;;;;;;3.72;1.33;;;;;;;19.01;42.24;99188.16;5074269;28;20409;-58
2022/09/20 08:40:00;;;;;;;2.97;1.15;;;;;;;18.85;42.39;99184.63;5074409;28;20064;-60
2022/09/20 08:42:33;;;;;;;4.20;1.40;;;;;;;18.93;42.38;99175.53;5073879;28;20442;-60
2022/09/20 08:45:04;;;;;;;5.75;1.75;;;;;;;19.00;42.09;99165.59;5074925;28;20040;-61
2022/09/20 08:47:34;;;;;;;3.05;1.30;;;;;;;19.17;41.94;99187.88;5073960;28;20045;-58
2022/09/20 08:50:04;;;;;;;2.58;1.30;;;;;;;19.26;41.97;99188.56;5074038;28;20110;-58
2022/09/20 08:52:34;;;;;;;2.45;1.15;;;;;;;19.40;40.50;99173.22;5074945;28;20078;-60
2022/09/20 08:55:00;;;;;;;2.28;1.38;;;;;;;19.59;40.38;99195.28;5073618;28;20365;-57
2022/09/20 08:57:32;;;;;;;1.30;1.05;;;;;;;19.55;40.02;99189.44;5072825;28;20100;-61
2022/09/20 09:00:00;;;;;;;3.00;1.17;;;;;;;19.08;40.12;99198.03;5073839;28;20060;-57
2022/09/20 09:02:30;;;;;;;3.88;1.08;;;;;;;18.73;41.10;99206.00;5074211;28;20035;-60
2022/09/20 09:04:56;;;;;;;2.40;0.93;;;;;;;18.48;41.58;99195.50;5074360;28;20024;-62
2022/09/20 09:07:23;;;;;;;2.63;1.00;;;;;;;18.30;42.00;99189.66;5074003;28;20058;-61
2022/09/20 09:09:52;;;;;;;2.35;1.02;;;;;;;18.18;42.16;99201.00;5072462;28;20425;-59
2022/09/20 09:12:27;;;;;;;4.15;1.10;;;;;;;17.93;43.28;99209.41;5074436;28;20024;-59
2022/09/20 09:14:58;;;;;;;3.67;1.15;;;;;;;17.80;43.69;99209.19;5074479;28;20075;-61
2022/09/20 09:17:26;;;;;;;4.40;1.35;;;;;;;17.71;44.13;99211.16;5073640;28;20032;-58
2022/09/20 09:19:53;;;;;;;3.15;1.38;;;;;;;17.71;44.17;99210.31;5073584;28;20037;-60
2022/09/20 09:22:34;;;;;;;3.50;1.42;;;;;;;17.81;44.21;99212.75;5074140;28;20351;-61
2022/09/20 09:25:33;;;;;;;5.63;1.30;;;;;;;18.02;44.38;99214.72;5073553;28;20455;-61
2022/09/20 09:28:02;;;;;;;3.47;1.23;;;;;;;17.96;43.73;99212.75;5073468;28;20036;-60
2022/09/20 09:30:32;;;;;;;3.17;1.30;;;;;;;17.92;44.24;99212.28;5072969;28;20048;-58
2022/09/20 09:33:27;;;;;;;1.70;1.20;;;;;;;18.01;44.14;99230.16;5073106;28;20101;-62
2022/09/20 09:35:57;;;;;;;5.20;1.60;;;;;;;17.77;44.76;99223.09;5073996;28;20029;-59
2022/09/20 09:38:26;;;;;;;2.80;1.35;;;;;;;17.46;44.73;99205.16;5073759;28;20032;-56
2022/09/20 09:40:55;;;;;;;5.55;1.40;;;;;;;17.58;44.98;99227.19;5073533;28;20423;-55
2022/09/20 09:43:28;;;;;;;4.20;1.48;;;;;;;17.83;44.76;99235.88;5072995;28;20115;-59
2022/09/20 09:46:21;;;;;;;3.63;1.45;;;;;;;18.18;44.61;99238.94;5073014;28;20056;-59
2022/09/20 09:49:06;;;;;;;4.68;1.40;;;;;;;18.42;44.13;99239.66;5072800;28;20529;-59
2022/09/20 09:51:32;;;;;;;2.58;1.50;;;;;;;18.45;43.65;99244.69;5072612;28;20036;-59
2022/09/20 09:53:57;;;;;;;1.73;1.30;;;;;;;18.44;43.87;99240.28;5072990;28;20446;-59
2022/09/20 09:56:38;;;;;;;4.07;1.70;;;;;;;18.42;44.04;99249.63;5072859;28;20040;-57
2022/09/20 09:59:21;;;;;;;3.65;1.70;;;;;;;18.11;44.64;99245.28;5072212;28;20424;-59
2022/09/20 10:01:58;;;;;;;4.07;1.10;;;;;;;17.75;45.80;99244.97;5072631;28;20047;-61
2022/09/20 10:04:30;;;;;;;3.80;1.67;;;;;;;17.53;46.64;99252.09;5073312;28;20028;-60
2022/09/20 10:07:18;;;;;;;3.92;1.33;;;;;;;17.26;47.37;99267.88;5071826;28;20032;-58
2022/09/20 10:10:03;;;;;;;5.45;1.63;;;;;;;17.15;47.76;99258.34;5072617;28;20067;-56
2022/09/20 10:12:46;;;;;;;4.10;1.42;;;;;;;17.00;48.15;99258.28;5073150;28;20028;-62
2022/09/20 10:15:16;;;;;;;2.05;1.50;;;;;;;16.93;48.23;99268.09;5072352;28;20064;-58
2022/09/20 10:17:47;;;;;;;3.67;1.60;;;;;;;16.78;48.51;99266.16;5072309;28;20032;-58
2022/09/20 10:20:32;;;;;;;3.00;1.52;;;;;;;16.84;48.25;99269.16;5072456;28;20052;-62
2022/09/20 10:23:08;;;;;;;4.43;2.13;;;;;;;16.85;48.64;99265.44;5072442;28;20032;-58
2022/09/20 10:25:43;;;;;;;3.67;1.90;;;;;;;16.97;48.17;99268.56;5071827;28;20024;-59
2022/09/20 10:28:23;;;;;;;4.47;2.25;;;;;;;17.43;47.35;99267.75;5071349;28;20123;-58
2022/09/20 10:31:16;;;;;;;5.00;2.03;;;;;;;17.95;46.00;99255.22;5071039;28;20075;-57
2022/09/20 10:33:55;;;;;;;3.05;1.50;;;;;;;18.60;44.82;99279.88;5069823;28;20032;-58
2022/09/20 10:36:46;;;;;;;2.83;1.30;;;;;;;18.99;43.86;99271.59;5069415;28;20695;-60
2022/09/20 10:39:21;;;;;;;2.25;1.33;;;;;;;19.13;43.10;99283.44;5072805;28;20173;-61
2022/09/20 10:44:52;;;;;;;5.32;1.58;;;;;;;19.04;43.40;99282.72;5057491;28;20082;-62
2022/09/20 10:47:23;;;;;;;1.60;1.10;;;;;;;18.89;43.12;99280.03;5072280;28;20052;-60
2022/09/20 10:49:52;;;;;;;4.82;1.40;;;;;;;18.62;43.96;99283.25;5072066;28;20049;-57
2022/09/20 10:52:59;;;;;;;6.00;2.10;;;;;;;18.44;44.99;99289.06;5071571;28;20350;-60
2022/09/20 10:55:46;;;;;;;3.42;1.35;;;;;;;18.20;45.09;99298.31;5059003;28;20063;-62
2022/09/20 10:58:14;;;;;;;1.75;1.10;;;;;;;17.92;45.15;99297.09;5069201;28;20036;-62
2022/09/20 11:00:53;;;;;;;4.75;1.23;;;;;;;17.81;44.90;99294.81;5070262;28;20047;-62
2022/09/20 11:04:05;;;;;;;2.03;1.65;;;;;;;17.89;45.81;99304.72;5069190;28;20063;-62
2022/09/20 11:07:03;;;;;;;1.38;1.10;;;;;;;17.92;45.19;99304.34;5071192;28;20618;-60
2022/09/20 11:09:37;;;;;;;4.72;1.20;;;;;;;17.78;44.20;99314.13;5072493;28;20123;-64
2022/09/20 11:12:15;;;;;;;1.92;1.23;;;;;;;17.73;44.73;99316.56;5071043;28;20071;-61
2022/09/20 11:14:48;;;;;;;3.50;1.02;;;;;;;17.60;45.07;99323.44;5071264;28;20802;-63
2022/09/20 11:17:30;;;;;;;5.07;1.60;;;;;;;17.56;44.92;99326.69;5073183;28;20036;-64
2022/09/20 11:20:02;;;;;;;5.07;1.73;;;;;;;17.41;45.23;99330.16;5060720;28;20040;-63
2022/09/20 11:23:25;;;;;;;1.80;1.23;;;;;;;17.51;45.60;99343.47;5075511;28;20405;-62
2022/09/20 11:25:59;;;;;;;1.63;1.50;;;;;;;17.33;45.90;99349.19;5030146;28;20055;-63
2022/09/20 11:28:27;;;;;;;2.25;1.10;;;;;;;17.08;46.36;99347.47;5074873;28;20090;-63
2022/09/20 11:31:29;;;;;;;2.00;1.42;;;;;;;17.00;47.08;99352.94;5075361;28;20572;-63
2022/09/20 11:34:12;;;;;;;1.88;1.38;;;;;;;16.64;47.54;99329.91;5052678;28;20124;-63
2022/09/20 11:37:00;;;;;;;6.63;1.65;;;;;;;16.79;47.98;99375.97;5073741;28;20086;-64
2022/09/20 11:39:49;;;;;;;4.93;1.40;;;;;;;16.65;48.59;99361.34;5075284;28;20091;-63
2022/09/20 11:42:22;;;;;;;3.50;1.70;;;;;;;16.58;49.14;99378.41;5074705;28;20037;-63
2022/09/20 11:44:49;;;;;;;4.00;1.08;;;;;;;16.45;49.23;99369.00;5075199;28;20067;-64
2022/09/20 11:47:17;;;;;;;1.75;1.30;;;;;;;16.53;49.91;99372.69;5074375;28;20080;-62
2022/09/20 11:50:11;;;;;;;4.85;1.40;;;;;;;16.47;50.14;99387.75;5075155;28;20051;-64
2022/09/20 11:53:06;;;;;;;3.85;1.20;;;;;;;16.44;50.41;99388.94;5075020;28;20044;-63
2022/09/20 11:55:56;;;;;;;1.98;1.35;;;;;;;16.46;49.99;99372.53;5069915;28;20131;-64
2022/09/20 11:58:21;;;;;;;3.72;1.60;;;;;;;16.29;50.39;99366.34;5075590;28;20115;-63
2022/09/20 12:00:51;;;;;;;2.50;1.70;;;;;;;16.32;50.89;99379.50;5074645;28;20177;-64
2022/09/20 12:03:22;;;;;;;2.50;1.60;;;;;;;16.36;50.30;99378.13;5074259;28;20362;-63
2022/09/20 12:05:57;;;;;;;3.05;1.30;;;;;;;16.36;49.89;99383.53;5074231;28;20425;-64
2022/09/20 12:08:29;;;;;;;3.35;1.30;;;;;;;16.31;49.94;99377.81;5074294;28;20393;-63
2022/09/20 12:11:06;;;;;;;3.42;1.33;;;;;;;16.39;49.77;99385.91;5073213;28;20040;-61
2022/09/20 12:13:35;;;;;;;2.20;1.17;;;;;;;16.32;49.86;99384.91;5074478;28;20028;-60
2022/09/20 12:16:13;;;;;;;5.95;1.40;;;;;;;16.44;49.91;99388.94;5074885;28;20032;-62
2022/09/20 12:18:55;;;;;;;4.43;1.40;;;;;;;16.49;49.71;99386.56;5073724;28;20122;-61
2022/09/20 12:21:21;;;;;;;4.38;1.33;;;;;;;16.48;49.13;99395.69;5074137;28;20024;-62
2022/09/20 12:23:55;;;;;;;3.25;1.30;;;;;;;16.56;49.28;99400.22;5073370;28;20129;-62
2022/09/20 12:26:21;;;;;;;3.17;1.77;;;;;;;16.66;48.73;99394.63;5072786;28;20450;-61
2022/09/20 12:28:52;;;;;;;5.10;1.75;;;;;;;16.76;48.73;99410.66;5072590;28;20025;-60
2022/09/20 12:31:17;;;;;;;3.10;1.88;;;;;;;16.65;48.72;99401.06;5073975;28;20072;-61
2022/09/20 12:34:00;;;;;;;1.70;1.50;;;;;;;16.63;49.30;99408.47;5073427;28;20358;-63
2022/09/20 12:36:30;;;;;;;4.30;1.50;;;;;;;16.38;49.63;99415.81;5067201;28;20307;-61
2022/09/20 12:39:11;;;;;;;2.42;1.65;;;;;;;16.41;49.97;99416.31;5073299;28;20101;-60